createdAt,value
2022-08-03T00:00:26.973Z,1.80
2022-08-03T00:02:54.015Z,1.73
2022-08-03T00:05:21.039Z,1.83
2022-08-03T00:07:48.515Z,1.50
2022-08-03T00:10:16.279Z,1.58
2022-08-03T00:12:42.958Z,1.70
2022-08-03T00:15:15.059Z,1.92
2022-08-03T00:17:52.518Z,1.70
2022-08-03T00:20:20.014Z,1.70
2022-08-03T00:22:46.691Z,1.60
2022-08-03T00:25:13.788Z,1.90
2022-08-03T00:27:40.395Z,1.77
2022-08-03T00:30:07.749Z,1.88
2022-08-03T00:32:34.363Z,1.85
2022-08-03T00:35:01.032Z,1.60
2022-08-03T00:37:41.617Z,1.80
2022-08-03T00:40:11.786Z,1.60
2022-08-03T00:42:50.638Z,1.75
2022-08-03T00:45:18.676Z,1.63
2022-08-03T00:47:45.844Z,1.90
2022-08-03T00:50:12.961Z,1.90
2022-08-03T00:52:40.321Z,1.70
2022-08-03T00:55:07.301Z,2.15
2022-08-03T00:57:34.067Z,1.90
2022-08-03T01:00:01.211Z,1.70
2022-08-03T01:02:29.427Z,2.00
2022-08-03T01:04:56.593Z,1.80
2022-08-03T01:07:31.737Z,1.80
2022-08-03T01:10:06.438Z,1.95
2022-08-03T01:12:44.090Z,1.90
2022-08-03T01:15:21.670Z,1.65
2022-08-03T01:17:56.311Z,1.75
2022-08-03T01:20:25.152Z,1.90
2022-08-03T01:22:54.822Z,1.42
2022-08-03T01:29:11.257Z,1.80
2022-08-03T01:33:00.127Z,1.80
2022-08-03T01:34:41.295Z,1.88
2022-08-03T01:37:11.023Z,1.88
2022-08-03T01:39:41.115Z,1.70
2022-08-03T01:42:11.680Z,1.90
2022-08-03T01:44:41.797Z,1.80
2022-08-03T01:47:10.033Z,1.70
2022-08-03T01:49:43.411Z,1.73
2022-08-03T01:52:11.588Z,1.70
2022-08-03T01:54:43.318Z,1.60
2022-08-03T01:57:10.843Z,1.80
2022-08-03T01:59:39.481Z,1.90
2022-08-03T02:02:28.277Z,1.67
2022-08-03T02:04:57.767Z,1.77
2022-08-03T02:07:26.937Z,1.90
2022-08-03T02:09:55.628Z,1.70
2022-08-03T02:12:25.142Z,1.67
2022-08-03T02:14:52.049Z,1.80
2022-08-03T02:17:39.603Z,1.70
2022-08-03T02:20:08.866Z,1.80
2022-08-03T02:22:39.225Z,1.80
2022-08-03T02:25:08.532Z,1.70
2022-08-03T02:27:43.184Z,2.08
2022-08-03T02:30:12.487Z,1.50
2022-08-03T02:32:41.082Z,1.70
2022-08-03T02:35:12.658Z,1.70
2022-08-03T02:37:49.861Z,1.77
2022-08-03T02:40:19.032Z,1.50
2022-08-03T02:42:47.269Z,1.90
2022-08-03T02:45:16.811Z,1.90
2022-08-03T02:47:54.495Z,1.73
2022-08-03T02:50:23.248Z,1.77
2022-08-03T02:52:51.353Z,2.15
2022-08-03T02:55:21.708Z,2.28
2022-08-03T02:57:49.978Z,1.65
2022-08-03T03:00:19.436Z,1.80
2022-08-03T03:02:56.973Z,1.65
2022-08-03T03:05:54.961Z,1.90
2022-08-03T03:08:18.707Z,1.85
2022-08-03T03:10:49.011Z,1.70
2022-08-03T03:13:22.630Z,1.70
2022-08-03T03:15:50.928Z,2.05
2022-08-03T03:18:22.222Z,1.90
2022-08-03T03:20:51.625Z,2.10
2022-08-03T03:23:20.324Z,1.77
2022-08-03T03:25:47.077Z,1.70
2022-08-03T03:28:14.625Z,1.73
2022-08-03T03:30:41.999Z,2.10
2022-08-03T03:33:08.884Z,1.75
2022-08-03T03:35:38.818Z,2.05
2022-08-03T03:38:06.906Z,1.70
2022-08-03T03:40:35.732Z,1.80
2022-08-03T03:43:03.298Z,1.80
2022-08-03T03:45:31.766Z,1.98
2022-08-03T03:48:00.551Z,1.70
2022-08-03T03:50:28.222Z,1.70
2022-08-03T03:52:54.902Z,1.98
2022-08-03T03:55:21.687Z,2.13
2022-08-03T03:57:48.342Z,1.58
2022-08-03T04:00:17.185Z,1.80
2022-08-03T04:02:44.821Z,1.80
2022-08-03T04:05:30.622Z,1.67
2022-08-03T04:08:24.374Z,1.88
2022-08-03T04:13:49.264Z,2.00
2022-08-03T04:16:19.775Z,1.90
2022-08-03T04:18:50.572Z,1.75
2022-08-03T04:21:21.520Z,1.70
2022-08-03T04:23:51.407Z,1.75
2022-08-03T04:26:21.595Z,2.10
2022-08-03T04:28:50.531Z,2.00
2022-08-03T04:31:20.531Z,1.80
2022-08-03T04:33:48.613Z,1.92
2022-08-03T04:36:20.984Z,1.67
2022-08-03T04:38:57.251Z,1.70
2022-08-03T04:41:26.615Z,1.75
2022-08-03T04:43:56.227Z,1.77
2022-08-03T04:46:26.327Z,1.83
2022-08-03T04:48:53.714Z,1.90
2022-08-03T04:51:21.171Z,1.60
2022-08-03T04:53:48.131Z,1.58
2022-08-03T04:56:14.807Z,1.63
2022-08-03T04:58:41.638Z,1.67
2022-08-03T05:01:08.362Z,1.58
2022-08-03T05:03:35.150Z,2.13
2022-08-03T05:06:11.077Z,2.13
2022-08-03T05:08:45.996Z,1.98
2022-08-03T05:11:13.366Z,2.10
2022-08-03T05:13:40.019Z,1.98
2022-08-03T05:16:06.662Z,2.10
2022-08-03T05:18:33.739Z,2.25
2022-08-03T05:21:00.399Z,2.30
2022-08-03T05:23:27.226Z,1.92
2022-08-03T05:25:53.862Z,2.00
2022-08-03T05:28:20.604Z,1.95
2022-08-03T05:30:47.270Z,2.08
2022-08-03T05:33:13.945Z,2.50
2022-08-03T05:35:57.366Z,2.40
2022-08-03T05:38:28.736Z,2.28
2022-08-03T05:41:22.294Z,2.20
2022-08-03T05:43:47.907Z,2.60
2022-08-03T05:46:14.645Z,2.65
2022-08-03T05:48:42.466Z,2.15
2022-08-03T05:51:11.850Z,2.40
2022-08-03T05:53:39.669Z,2.60
2022-08-03T05:56:13.714Z,2.42
2022-08-03T05:58:46.403Z,2.50
2022-08-03T06:01:13.398Z,2.50
2022-08-03T06:03:40.249Z,2.22
2022-08-03T06:06:06.977Z,2.15
2022-08-03T06:08:34.469Z,1.88
2022-08-03T06:11:01.200Z,2.00
2022-08-03T06:13:27.879Z,2.08
2022-08-03T06:15:54.537Z,1.38
2022-08-03T06:18:21.325Z,1.92
2022-08-03T06:20:49.441Z,2.00
2022-08-03T06:23:18.525Z,2.20
2022-08-03T06:25:45.986Z,1.75
2022-08-03T06:28:42.371Z,2.10
2022-08-03T06:31:01.512Z,2.60
2022-08-03T06:34:30.651Z,2.15
2022-08-03T06:36:15.460Z,2.08
2022-08-03T06:38:42.208Z,2.58
2022-08-03T06:41:08.875Z,1.88
2022-08-03T06:44:02.596Z,1.80
2022-08-03T06:46:25.901Z,2.10
2022-08-03T06:48:52.998Z,2.22
2022-08-03T06:51:19.862Z,2.08
2022-08-03T06:53:46.540Z,2.22
2022-08-03T06:56:13.438Z,1.98
2022-08-03T06:58:40.211Z,2.10
2022-08-03T07:01:06.919Z,2.50
2022-08-03T07:03:33.663Z,2.50
2022-08-03T07:06:00.332Z,3.50
2022-08-03T07:08:33.495Z,2.47
2022-08-03T07:11:01.130Z,2.10
2022-08-03T07:13:27.838Z,2.88
2022-08-03T07:15:56.072Z,3.35
2022-08-03T07:18:29.158Z,2.90
2022-08-03T07:20:59.787Z,3.53
2022-08-03T07:23:26.476Z,3.30
2022-08-03T07:25:53.325Z,3.40
2022-08-03T07:28:20.398Z,3.40
2022-08-03T07:30:47.273Z,2.63
2022-08-03T07:33:15.193Z,3.22
2022-08-03T07:35:42.529Z,4.13
2022-08-03T07:38:09.236Z,4.60
2022-08-03T07:40:36.032Z,9.88
2022-08-03T07:43:03.615Z,7.00
2022-08-03T07:45:31.405Z,5.03
2022-08-03T07:47:58.316Z,5.55
2022-08-03T07:50:25.020Z,7.00
2022-08-03T07:52:53.142Z,7.10
2022-08-03T07:55:24.347Z,6.25
2022-08-03T07:58:09.965Z,6.10
2022-08-03T08:00:36.979Z,6.45
2022-08-03T08:03:04.848Z,7.47
2022-08-03T08:05:31.768Z,6.00
2022-08-03T08:07:58.552Z,5.93
2022-08-03T08:10:25.392Z,6.07
2022-08-03T08:12:52.490Z,5.20
2022-08-03T08:15:19.191Z,5.93
2022-08-03T08:17:54.075Z,5.30
2022-08-03T08:20:30.849Z,4.80
2022-08-03T08:23:13.919Z,5.10
2022-08-03T08:25:52.226Z,4.47
2022-08-03T08:28:32.482Z,4.15
2022-08-03T08:31:00.653Z,3.75
2022-08-03T08:33:37.361Z,4.80
2022-08-03T08:36:15.626Z,4.25
2022-08-03T08:38:44.687Z,3.40
2022-08-03T08:41:13.122Z,3.55
2022-08-03T08:43:40.090Z,2.90
2022-08-03T08:46:08.551Z,2.70
2022-08-03T08:48:36.444Z,3.22
2022-08-03T08:51:03.399Z,2.63
2022-08-03T08:53:32.858Z,2.90
2022-08-03T08:56:02.302Z,2.95
2022-08-03T08:58:33.034Z,2.67
2022-08-03T09:00:59.884Z,2.30
2022-08-03T09:03:30.025Z,2.60
2022-08-03T09:05:59.354Z,2.50
2022-08-03T09:08:26.430Z,2.42
2022-08-03T09:10:53.066Z,2.30
2022-08-03T09:13:19.760Z,2.30
2022-08-03T09:15:57.171Z,2.22
2022-08-03T09:18:32.809Z,2.42
2022-08-03T09:21:34.146Z,2.27
2022-08-03T09:24:05.865Z,2.17
2022-08-03T09:26:38.092Z,2.03
2022-08-03T09:29:14.531Z,2.08
2022-08-03T09:31:46.941Z,2.60
2022-08-03T09:34:18.260Z,2.30
2022-08-03T09:36:47.621Z,1.92
2022-08-03T09:39:41.560Z,2.05
2022-08-03T09:42:11.647Z,1.73
2022-08-03T09:44:44.423Z,1.73
2022-08-03T09:47:12.734Z,2.10
2022-08-03T09:49:44.435Z,1.80
2022-08-03T09:52:38.015Z,1.73
2022-08-03T09:56:31.652Z,1.90
2022-08-03T09:58:06.489Z,1.98
2022-08-03T10:00:33.131Z,1.70
2022-08-03T10:03:05.856Z,2.00
2022-08-03T10:05:33.271Z,1.80
2022-08-03T10:07:59.914Z,1.85
2022-08-03T10:10:31.160Z,2.15
2022-08-03T10:13:00.326Z,2.08
2022-08-03T10:16:23.556Z,1.63
2022-08-03T10:18:14.522Z,1.77
2022-08-03T10:20:49.831Z,1.90
2022-08-03T10:23:18.207Z,1.95
2022-08-03T10:25:48.473Z,2.30
2022-08-03T10:28:18.425Z,1.70
2022-08-03T10:30:50.335Z,1.80
2022-08-03T10:33:52.044Z,1.83
2022-08-03T10:36:15.013Z,1.70
2022-08-03T10:38:47.368Z,1.92
2022-08-03T10:41:16.896Z,1.88
2022-08-03T10:43:50.595Z,1.60
2022-08-03T10:46:21.374Z,1.70
2022-08-03T10:48:51.755Z,1.70
2022-08-03T10:51:20.146Z,1.60
2022-08-03T10:53:55.074Z,1.70
2022-08-03T10:56:53.472Z,1.48
2022-08-03T10:59:46.264Z,1.58
2022-08-03T11:02:14.384Z,1.55
2022-08-03T11:04:41.945Z,1.50
2022-08-03T11:07:24.544Z,1.65
2022-08-03T11:12:30.437Z,1.70
2022-08-03T11:15:04.943Z,1.55
2022-08-03T11:17:33.817Z,1.73
2022-08-03T11:20:13.835Z,1.70
2022-08-03T11:23:01.108Z,1.70
2022-08-03T11:25:53.880Z,1.58
2022-08-03T11:28:28.680Z,1.50
2022-08-03T11:30:55.516Z,1.60
2022-08-03T11:33:31.796Z,1.45
2022-08-03T11:36:02.317Z,1.52
2022-08-03T11:38:29.075Z,1.73
2022-08-03T11:40:55.740Z,1.80
2022-08-03T11:43:22.427Z,1.60
2022-08-03T11:46:28.260Z,1.70
2022-08-03T11:49:09.758Z,1.60
2022-08-03T11:51:37.944Z,1.80
2022-08-03T11:54:06.312Z,1.13
2022-08-03T11:56:47.832Z,1.92
2022-08-03T11:59:20.269Z,1.98
2022-08-03T12:01:47.737Z,1.80
2022-08-03T12:04:16.417Z,1.60
2022-08-03T12:06:58.732Z,1.50
2022-08-03T12:09:25.400Z,1.50
2022-08-03T12:12:00.435Z,1.38
2022-08-03T12:14:50.625Z,1.38
2022-08-03T12:17:16.556Z,1.50
2022-08-03T12:19:44.073Z,1.40
2022-08-03T12:22:10.945Z,2.00
2022-08-03T12:24:46.863Z,1.38
2022-08-03T12:27:23.739Z,1.40
2022-08-03T12:29:58.638Z,1.58
2022-08-03T12:32:26.592Z,1.42
2022-08-03T12:34:53.504Z,1.67
2022-08-03T12:37:23.264Z,1.52
2022-08-03T12:40:02.056Z,1.60
2022-08-03T12:42:37.515Z,1.40
2022-08-03T12:45:23.519Z,1.45
2022-08-03T12:48:01.750Z,1.45
2022-08-03T12:50:33.846Z,1.33
2022-08-03T12:53:04.649Z,1.38
2022-08-03T12:55:40.199Z,1.30
2022-08-03T12:58:36.187Z,1.40
2022-08-03T13:01:09.746Z,1.50
2022-08-03T13:03:55.867Z,1.27
2022-08-03T13:06:26.572Z,1.40
2022-08-03T13:09:07.375Z,1.50
2022-08-03T13:11:55.929Z,1.23
2022-08-03T13:14:23.695Z,1.30
2022-08-03T13:16:50.592Z,1.23
2022-08-03T13:19:17.299Z,1.30
2022-08-03T13:22:01.904Z,1.15
2022-08-03T13:24:32.570Z,1.67
2022-08-03T13:27:00.163Z,1.33
2022-08-03T13:29:26.835Z,1.25
2022-08-03T13:31:53.764Z,1.35
2022-08-03T13:34:23.609Z,1.20
2022-08-03T13:37:09.284Z,1.35
2022-08-03T13:39:57.725Z,1.50
2022-08-03T13:42:23.579Z,1.60
2022-08-03T13:44:50.882Z,1.60
2022-08-03T13:47:17.749Z,1.25
2022-08-03T13:49:56.949Z,1.40
2022-08-03T13:52:29.989Z,1.35
2022-08-03T13:54:56.698Z,1.50
2022-08-03T13:58:04.732Z,1.20
2022-08-03T14:00:12.138Z,1.30
2022-08-03T14:02:38.915Z,1.33
2022-08-03T14:05:05.883Z,1.30
2022-08-03T14:07:32.561Z,1.50
2022-08-03T14:09:59.245Z,1.52
2022-08-03T14:12:25.898Z,1.50
2022-08-03T14:14:52.557Z,1.40
2022-08-03T14:17:19.817Z,1.30
2022-08-03T14:19:53.229Z,1.25
2022-08-03T14:22:20.837Z,1.50
2022-08-03T14:24:47.503Z,1.55
2022-08-03T14:27:15.815Z,1.40
2022-08-03T14:29:42.506Z,1.55
2022-08-03T14:32:12.513Z,1.40
2022-08-03T14:34:40.094Z,1.60
2022-08-03T14:37:06.759Z,1.38
2022-08-03T14:42:20.528Z,1.35
2022-08-03T14:44:47.685Z,1.60
2022-08-03T14:47:14.643Z,1.40
2022-08-03T14:50:31.009Z,1.60
2022-08-03T14:52:28.463Z,1.33
2022-08-03T14:54:55.157Z,1.40
2022-08-03T14:57:22.218Z,1.45
2022-08-03T14:59:56.635Z,1.15
2022-08-03T15:02:25.468Z,1.20
2022-08-03T15:04:52.913Z,1.60
2022-08-03T15:07:20.984Z,1.88
2022-08-03T15:09:48.014Z,1.58
2022-08-03T15:12:14.674Z,1.52
2022-08-03T15:14:41.352Z,1.40
2022-08-03T15:17:08.220Z,1.30
2022-08-03T15:20:01.408Z,1.40
2022-08-03T15:22:25.129Z,1.38
2022-08-03T15:24:52.368Z,1.60
2022-08-03T15:27:19.369Z,1.52
2022-08-03T15:30:09.460Z,1.25
2022-08-03T15:32:34.175Z,1.13
2022-08-03T15:35:01.428Z,1.30
2022-08-03T15:37:28.437Z,1.20
2022-08-03T15:39:59.603Z,1.33
2022-08-03T15:42:31.151Z,1.30
2022-08-03T15:44:58.150Z,1.50
2022-08-03T15:47:24.989Z,1.25
2022-08-03T15:49:51.680Z,1.48
2022-08-03T15:52:18.360Z,1.40
2022-08-03T15:54:44.995Z,1.40
2022-08-03T15:57:11.761Z,1.30
2022-08-03T15:59:38.474Z,1.33
2022-08-03T16:02:05.213Z,1.40
2022-08-03T16:04:31.847Z,1.60
2022-08-03T16:06:58.501Z,1.60
2022-08-03T16:09:43.082Z,1.70
2022-08-03T16:12:14.612Z,1.42
2022-08-03T16:14:52.371Z,1.42
2022-08-03T16:17:20.493Z,1.42
2022-08-03T16:19:47.470Z,1.40
2022-08-03T16:22:14.510Z,1.67
2022-08-03T16:24:41.485Z,1.50
2022-08-03T16:27:37.419Z,1.63
2022-08-03T16:29:55.237Z,1.50
2022-08-03T16:32:21.935Z,1.30
2022-08-03T16:34:48.648Z,1.42
2022-08-03T16:37:37.479Z,1.80
2022-08-03T16:40:03.446Z,1.40
2022-08-03T16:42:30.220Z,1.35
2022-08-03T16:44:56.868Z,2.17
2022-08-03T16:47:23.597Z,1.35
2022-08-03T16:49:53.275Z,1.40
2022-08-03T16:52:23.890Z,1.70
2022-08-03T16:54:53.610Z,1.88
2022-08-03T16:57:29.897Z,1.52
2022-08-03T17:00:33.792Z,1.60
2022-08-03T17:03:04.426Z,1.55
2022-08-03T17:05:47.377Z,1.70
2022-08-03T17:08:27.116Z,1.50
2022-08-03T17:10:54.834Z,1.75
2022-08-03T17:13:22.801Z,1.80
2022-08-03T17:16:01.361Z,1.70
2022-08-03T17:18:35.535Z,1.67
2022-08-03T17:21:05.954Z,1.50
2022-08-03T17:23:45.718Z,1.70
2022-08-03T17:26:21.547Z,1.60
2022-08-03T17:28:57.301Z,1.70
2022-08-03T17:31:31.865Z,1.70
2022-08-03T17:34:01.709Z,1.60
2022-08-03T17:37:01.646Z,1.90
2022-08-03T17:39:30.783Z,1.98
2022-08-03T17:42:31.218Z,1.90
2022-08-03T17:44:55.722Z,1.85
2022-08-03T17:47:23.045Z,1.60
2022-08-03T17:49:56.979Z,1.90
2022-08-03T17:52:34.432Z,1.88
2022-08-03T17:55:55.011Z,1.70
2022-08-03T17:58:15.396Z,1.98
2022-08-03T18:01:05.160Z,1.90
2022-08-03T18:03:59.247Z,2.10
2022-08-03T18:06:37.001Z,1.90
2022-08-03T18:09:05.342Z,1.70
2022-08-03T18:11:58.092Z,1.92
2022-08-03T18:14:38.310Z,1.70
2022-08-03T18:17:15.627Z,1.73
2022-08-03T18:20:01.967Z,1.60
2022-08-03T18:22:32.164Z,2.00
2022-08-03T18:25:07.716Z,1.80
2022-08-03T18:27:45.912Z,1.65
2022-08-03T18:30:15.474Z,1.90
2022-08-03T18:33:00.730Z,2.03
2022-08-03T18:35:52.710Z,1.90
2022-08-03T18:38:18.773Z,1.83
2022-08-03T18:40:48.730Z,1.90
2022-08-03T18:43:17.599Z,2.10
2022-08-03T18:45:57.385Z,1.88
2022-08-03T18:48:49.065Z,1.73
2022-08-03T18:51:28.788Z,2.13
2022-08-03T18:54:45.434Z,2.10
2022-08-03T18:57:18.721Z,1.83
2022-08-03T19:00:17.454Z,2.35
2022-08-03T19:03:02.476Z,2.40
2022-08-03T19:05:49.330Z,2.13
2022-08-03T19:08:33.440Z,2.03
2022-08-03T19:11:05.885Z,1.95
2022-08-03T19:16:42.043Z,1.90
2022-08-03T19:19:11.098Z,1.80
2022-08-03T19:21:44.550Z,1.90
2022-08-03T19:24:13.580Z,2.10
2022-08-03T19:26:42.543Z,2.00
2022-08-03T19:29:16.812Z,1.92
2022-08-03T19:31:59.004Z,1.73
2022-08-03T19:36:55.585Z,1.92
2022-08-03T19:39:24.398Z,2.10
2022-08-03T19:41:56.371Z,2.05
2022-08-03T19:44:29.280Z,1.98
2022-08-03T19:47:11.200Z,2.22
2022-08-03T19:49:59.949Z,1.90
2022-08-03T19:52:35.595Z,2.15
2022-08-03T19:55:12.311Z,2.20
2022-08-03T19:57:42.444Z,2.10
2022-08-03T20:00:13.903Z,1.95
2022-08-03T20:02:41.454Z,2.47
2022-08-03T20:05:12.047Z,2.30
2022-08-03T20:07:47.891Z,2.22
2022-08-03T20:10:16.743Z,2.40
2022-08-03T20:12:44.955Z,2.13
2022-08-03T20:15:12.078Z,3.25
2022-08-03T20:17:57.086Z,2.50
2022-08-03T20:20:32.709Z,3.10
2022-08-03T20:23:06.941Z,2.83
2022-08-03T20:25:48.737Z,2.80
2022-08-03T20:28:35.328Z,2.95
2022-08-03T20:31:25.191Z,2.72
2022-08-03T20:34:00.608Z,3.20
2022-08-03T20:36:27.647Z,4.00
2022-08-03T20:38:57.696Z,3.60
2022-08-03T20:41:25.133Z,3.20
2022-08-03T20:43:51.883Z,3.35
2022-08-03T20:46:29.640Z,3.30
2022-08-03T20:49:06.134Z,3.53
2022-08-03T20:51:50.678Z,3.40
2022-08-03T20:54:28.948Z,3.28
2022-08-03T20:56:57.980Z,3.45
2022-08-03T20:59:36.937Z,3.63
2022-08-03T21:02:19.536Z,3.60
2022-08-03T21:04:56.224Z,3.63
2022-08-03T21:07:24.585Z,3.15
2022-08-03T21:10:13.753Z,2.60
2022-08-03T21:13:14.914Z,2.85
2022-08-03T21:16:02.980Z,2.83
2022-08-03T21:18:37.330Z,3.22
2022-08-03T21:21:06.273Z,3.13
2022-08-03T21:23:48.145Z,3.45
2022-08-03T21:26:23.699Z,3.45
2022-08-03T21:28:52.133Z,3.30
2022-08-03T21:31:24.322Z,3.28
2022-08-03T21:33:57.029Z,3.38
2022-08-03T21:36:28.190Z,3.70
2022-08-03T21:38:57.300Z,3.00
2022-08-03T21:41:26.552Z,3.45
2022-08-03T21:43:53.466Z,2.90
2022-08-03T21:46:21.844Z,3.00
2022-08-03T21:48:54.566Z,2.97
2022-08-03T21:51:24.554Z,3.05
2022-08-03T21:54:02.441Z,3.13
2022-08-03T21:56:42.042Z,2.78
2022-08-03T21:59:16.446Z,2.92
2022-08-03T22:01:45.654Z,2.90
2022-08-03T22:04:55.128Z,2.90
2022-08-03T22:07:05.379Z,2.80
2022-08-03T22:09:34.245Z,2.70
2022-08-03T22:12:00.993Z,2.70
2022-08-03T22:14:27.838Z,2.72
2022-08-03T22:16:55.332Z,3.00
2022-08-03T22:19:22.047Z,2.90
2022-08-03T22:21:49.403Z,3.20
2022-08-03T22:24:24.039Z,3.10
2022-08-03T22:27:09.915Z,3.20
2022-08-03T22:29:39.817Z,3.17
2022-08-03T22:32:06.872Z,3.00
2022-08-03T22:34:34.375Z,2.60
2022-08-03T22:37:03.640Z,2.72
2022-08-03T22:39:31.487Z,3.05
2022-08-03T22:42:01.617Z,2.70
2022-08-03T22:44:28.437Z,2.70
2022-08-03T22:46:56.167Z,2.90
2022-08-03T22:49:22.944Z,3.00
2022-08-03T22:51:52.008Z,2.67
2022-08-03T22:54:19.112Z,3.25
2022-08-03T22:56:50.365Z,3.00
2022-08-03T22:59:41.006Z,3.05
2022-08-03T23:02:15.134Z,2.85
2022-08-03T23:04:51.675Z,3.35
2022-08-03T23:07:30.946Z,3.17
2022-08-03T23:09:58.383Z,3.28
2022-08-03T23:12:25.382Z,3.20
2022-08-03T23:14:55.412Z,3.03
2022-08-03T23:17:23.971Z,3.10
2022-08-03T23:19:52.777Z,3.08
2022-08-03T23:22:30.289Z,3.10
2022-08-03T23:24:58.578Z,2.95
2022-08-03T23:27:27.413Z,3.08
2022-08-03T23:29:54.349Z,2.95
2022-08-03T23:32:21.202Z,3.17
2022-08-03T23:35:09.098Z,3.08
2022-08-03T23:38:03.926Z,3.35
2022-08-03T23:40:29.551Z,3.10
2022-08-03T23:42:58.254Z,3.10
2022-08-03T23:45:27.600Z,3.22
2022-08-03T23:47:54.442Z,3.30
2022-08-03T23:50:21.620Z,3.28
2022-08-03T23:53:15.196Z,3.15
2022-08-03T23:58:48.957Z,3.00
